sensor_id;sensor_type;location;lat;lon;timestamp;temperature;humidity
4749;DHT22;2388;53.582;9.962;2023-04-24T00:01:36;13.10;99.90
4749;DHT22;2388;53.582;9.962;2023-04-24T00:04:02;13.10;99.90
4749;DHT22;2388;53.582;9.962;2023-04-24T00:06:29;13.10;99.90
4749;DHT22;2388;53.582;9.962;2023-04-24T00:09:01;13.10;99.90
4749;DHT22;2388;53.582;9.962;2023-04-24T00:11:28;13.00;99.90
4749;DHT22;2388;53.582;9.962;2023-04-24T00:13:53;13.00;99.90
4749;DHT22;2388;53.582;9.962;2023-04-24T00:16:19;13.00;99.90
4749;DHT22;2388;53.582;9.962;2023-04-24T00:18:44;13.00;99.90
4749;DHT22;2388;53.582;9.962;2023-04-24T00:21:10;13.10;99.90
4749;DHT22;2388;53.582;9.962;2023-04-24T00:23:36;13.10;99.90
4749;DHT22;2388;53.582;9.962;2023-04-24T00:26:02;13.10;99.90
4749;DHT22;2388;53.582;9.962;2023-04-24T00:28:27;13.10;99.90
4749;DHT22;2388;53.582;9.962;2023-04-24T00:30:53;13.00;99.90
4749;DHT22;2388;53.582;9.962;2023-04-24T00:33:19;13.10;99.90
4749;DHT22;2388;53.582;9.962;2023-04-24T00:35:44;13.10;99.90
4749;DHT22;2388;53.582;9.962;2023-04-24T00:38:10;13.00;99.90
4749;DHT22;2388;53.582;9.962;2023-04-24T00:40:35;13.00;99.90
4749;DHT22;2388;53.582;9.962;2023-04-24T00:43:01;13.00;99.90
4749;DHT22;2388;53.582;9.962;2023-04-24T00:45:27;12.90;99.90
4749;DHT22;2388;53.582;9.962;2023-04-24T00:47:53;12.90;99.90
4749;DHT22;2388;53.582;9.962;2023-04-24T00:50:20;13.00;99.90
4749;DHT22;2388;53.582;9.962;2023-04-24T00:52:46;12.90;99.90
4749;DHT22;2388;53.582;9.962;2023-04-24T00:55:12;12.90;99.90
4749;DHT22;2388;53.582;9.962;2023-04-24T00:57:38;12.90;99.90
4749;DHT22;2388;53.582;9.962;2023-04-24T01:00:05;12.80;99.90
4749;DHT22;2388;53.582;9.962;2023-04-24T01:02:32;12.80;99.90
4749;DHT22;2388;53.582;9.962;2023-04-24T01:05:00;12.80;99.90
4749;DHT22;2388;53.582;9.962;2023-04-24T01:07:26;12.70;99.90
4749;DHT22;2388;53.582;9.962;2023-04-24T01:09:52;12.70;99.90
4749;DHT22;2388;53.582;9.962;2023-04-24T01:12:18;12.70;99.90
4749;DHT22;2388;53.582;9.962;2023-04-24T01:14:44;12.70;99.90
4749;DHT22;2388;53.582;9.962;2023-04-24T01:17:10;12.70;99.90
4749;DHT22;2388;53.582;9.962;2023-04-24T01:19:36;12.70;99.90
4749;DHT22;2388;53.582;9.962;2023-04-24T01:22:02;12.70;99.90
4749;DHT22;2388;53.582;9.962;2023-04-24T01:24:28;12.70;99.90
4749;DHT22;2388;53.582;9.962;2023-04-24T01:26:54;12.60;99.90
4749;DHT22;2388;53.582;9.962;2023-04-24T01:29:20;12.60;99.90
4749;DHT22;2388;53.582;9.962;2023-04-24T01:31:45;12.60;99.90
4749;DHT22;2388;53.582;9.962;2023-04-24T01:34:11;12.60;99.90
4749;DHT22;2388;53.582;9.962;2023-04-24T01:36:37;12.60;99.90
4749;DHT22;2388;53.582;9.962;2023-04-24T01:39:03;12.60;99.90
4749;DHT22;2388;53.582;9.962;2023-04-24T01:41:30;12.60;99.90
4749;DHT22;2388;53.582;9.962;2023-04-24T01:43:57;12.60;99.90
4749;DHT22;2388;53.582;9.962;2023-04-24T01:46:23;12.60;99.90
4749;DHT22;2388;53.582;9.962;2023-04-24T01:48:51;12.70;99.90
4749;DHT22;2388;53.582;9.962;2023-04-24T01:51:17;12.60;99.90
4749;DHT22;2388;53.582;9.962;2023-04-24T01:53:42;12.60;99.90
4749;DHT22;2388;53.582;9.962;2023-04-24T01:56:08;12.60;99.90
4749;DHT22;2388;53.582;9.962;2023-04-24T01:58:34;12.60;99.90
4749;DHT22;2388;53.582;9.962;2023-04-24T02:00:59;12.60;99.90
4749;DHT22;2388;53.582;9.962;2023-04-24T02:03:26;12.60;99.90
4749;DHT22;2388;53.582;9.962;2023-04-24T02:05:51;12.60;99.90
4749;DHT22;2388;53.582;9.962;2023-04-24T02:08:17;12.60;99.90
4749;DHT22;2388;53.582;9.962;2023-04-24T02:10:42;12.60;99.90
4749;DHT22;2388;53.582;9.962;2023-04-24T02:13:08;12.60;99.90
4749;DHT22;2388;53.582;9.962;2023-04-24T02:15:33;12.50;99.90
4749;DHT22;2388;53.582;9.962;2023-04-24T02:17:59;12.60;99.90
4749;DHT22;2388;53.582;9.962;2023-04-24T02:20:25;12.50;99.90
4749;DHT22;2388;53.582;9.962;2023-04-24T02:22:50;12.50;99.90
4749;DHT22;2388;53.582;9.962;2023-04-24T02:25:16;12.40;99.90
4749;DHT22;2388;53.582;9.962;2023-04-24T02:27:41;12.40;99.90
4749;DHT22;2388;53.582;9.962;2023-04-24T02:30:07;12.40;99.90
4749;DHT22;2388;53.582;9.962;2023-04-24T02:32:33;12.40;99.90
4749;DHT22;2388;53.582;9.962;2023-04-24T02:34:59;12.50;99.90
4749;DHT22;2388;53.582;9.962;2023-04-24T02:37:25;12.40;99.90
4749;DHT22;2388;53.582;9.962;2023-04-24T02:39:50;12.40;99.90
4749;DHT22;2388;53.582;9.962;2023-04-24T02:42:16;12.40;99.90
4749;DHT22;2388;53.582;9.962;2023-04-24T02:44:41;12.40;99.90
4749;DHT22;2388;53.582;9.962;2023-04-24T02:47:07;12.30;99.90
4749;DHT22;2388;53.582;9.962;2023-04-24T02:49:33;12.30;99.90
4749;DHT22;2388;53.582;9.962;2023-04-24T02:51:59;12.30;99.90
4749;DHT22;2388;53.582;9.962;2023-04-24T02:54:25;12.30;99.90
4749;DHT22;2388;53.582;9.962;2023-04-24T02:56:50;12.30;99.90
4749;DHT22;2388;53.582;9.962;2023-04-24T02:59:15;12.30;99.90
4749;DHT22;2388;53.582;9.962;2023-04-24T03:01:41;12.30;99.90
4749;DHT22;2388;53.582;9.962;2023-04-24T03:04:06;12.20;99.90
4749;DHT22;2388;53.582;9.962;2023-04-24T03:06:32;12.20;99.90
4749;DHT22;2388;53.582;9.962;2023-04-24T03:08:58;12.20;99.90
4749;DHT22;2388;53.582;9.962;2023-04-24T03:11:23;12.10;99.90
4749;DHT22;2388;53.582;9.962;2023-04-24T03:13:49;12.10;99.90
4749;DHT22;2388;53.582;9.962;2023-04-24T03:16:14;12.10;99.90
4749;DHT22;2388;53.582;9.962;2023-04-24T03:18:40;12.10;99.90
4749;DHT22;2388;53.582;9.962;2023-04-24T03:21:05;12.10;99.90
4749;DHT22;2388;53.582;9.962;2023-04-24T03:23:31;12.00;99.90
4749;DHT22;2388;53.582;9.962;2023-04-24T03:25:56;12.00;99.90
4749;DHT22;2388;53.582;9.962;2023-04-24T03:28:22;12.00;99.90
4749;DHT22;2388;53.582;9.962;2023-04-24T03:30:47;11.90;99.90
4749;DHT22;2388;53.582;9.962;2023-04-24T03:33:13;11.90;99.90
4749;DHT22;2388;53.582;9.962;2023-04-24T03:35:38;11.90;99.90
4749;DHT22;2388;53.582;9.962;2023-04-24T03:38:04;11.90;99.90
4749;DHT22;2388;53.582;9.962;2023-04-24T03:40:32;11.80;99.90
4749;DHT22;2388;53.582;9.962;2023-04-24T03:42:58;11.80;99.90
4749;DHT22;2388;53.582;9.962;2023-04-24T03:45:24;11.80;99.90
4749;DHT22;2388;53.582;9.962;2023-04-24T03:47:50;11.80;99.90
4749;DHT22;2388;53.582;9.962;2023-04-24T03:50:15;11.70;99.90
4749;DHT22;2388;53.582;9.962;2023-04-24T03:52:41;11.70;99.90
4749;DHT22;2388;53.582;9.962;2023-04-24T03:55:07;11.70;99.90
4749;DHT22;2388;53.582;9.962;2023-04-24T03:57:32;11.60;99.90
4749;DHT22;2388;53.582;9.962;2023-04-24T03:59:58;11.60;99.90
4749;DHT22;2388;53.582;9.962;2023-04-24T04:02:23;11.60;99.90
4749;DHT22;2388;53.582;9.962;2023-04-24T04:04:49;11.60;99.90
4749;DHT22;2388;53.582;9.962;2023-04-24T04:07:14;11.60;99.90
4749;DHT22;2388;53.582;9.962;2023-04-24T04:09:40;11.60;99.90
4749;DHT22;2388;53.582;9.962;2023-04-24T04:12:05;11.60;99.90
4749;DHT22;2388;53.582;9.962;2023-04-24T04:14:31;11.50;99.90
4749;DHT22;2388;53.582;9.962;2023-04-24T04:16:56;11.60;99.90
4749;DHT22;2388;53.582;9.962;2023-04-24T04:19:22;11.50;99.90
4749;DHT22;2388;53.582;9.962;2023-04-24T04:21:47;11.50;99.90
4749;DHT22;2388;53.582;9.962;2023-04-24T04:24:18;11.50;99.90
4749;DHT22;2388;53.582;9.962;2023-04-24T04:26:43;11.60;99.90
4749;DHT22;2388;53.582;9.962;2023-04-24T04:29:13;11.60;99.90
4749;DHT22;2388;53.582;9.962;2023-04-24T04:31:38;11.50;99.90
4749;DHT22;2388;53.582;9.962;2023-04-24T04:34:04;11.50;99.90
4749;DHT22;2388;53.582;9.962;2023-04-24T04:36:29;11.50;99.90
4749;DHT22;2388;53.582;9.962;2023-04-24T04:38:54;11.50;99.90
4749;DHT22;2388;53.582;9.962;2023-04-24T04:41:20;11.50;99.90
4749;DHT22;2388;53.582;9.962;2023-04-24T04:43:45;11.50;99.90
4749;DHT22;2388;53.582;9.962;2023-04-24T04:46:11;11.50;99.90
4749;DHT22;2388;53.582;9.962;2023-04-24T04:48:37;11.50;99.90
4749;DHT22;2388;53.582;9.962;2023-04-24T04:51:03;11.50;99.90
4749;DHT22;2388;53.582;9.962;2023-04-24T04:53:28;11.60;99.90
4749;DHT22;2388;53.582;9.962;2023-04-24T04:55:54;11.60;99.90
4749;DHT22;2388;53.582;9.962;2023-04-24T04:58:20;11.70;99.90
4749;DHT22;2388;53.582;9.962;2023-04-24T05:00:45;11.70;99.90
4749;DHT22;2388;53.582;9.962;2023-04-24T05:03:11;11.70;99.90
4749;DHT22;2388;53.582;9.962;2023-04-24T05:05:36;11.70;99.90
4749;DHT22;2388;53.582;9.962;2023-04-24T05:08:06;11.60;99.90
4749;DHT22;2388;53.582;9.962;2023-04-24T05:10:32;11.70;99.90
4749;DHT22;2388;53.582;9.962;2023-04-24T05:12:57;11.60;99.90
4749;DHT22;2388;53.582;9.962;2023-04-24T05:15:23;11.60;99.90
4749;DHT22;2388;53.582;9.962;2023-04-24T05:17:48;11.60;99.90
4749;DHT22;2388;53.582;9.962;2023-04-24T05:20:14;11.60;99.90
4749;DHT22;2388;53.582;9.962;2023-04-24T05:22:40;11.60;99.90
4749;DHT22;2388;53.582;9.962;2023-04-24T05:25:05;11.70;99.90
4749;DHT22;2388;53.582;9.962;2023-04-24T05:27:31;11.70;99.90
4749;DHT22;2388;53.582;9.962;2023-04-24T05:29:56;11.70;99.90
4749;DHT22;2388;53.582;9.962;2023-04-24T05:32:22;11.80;99.90
4749;DHT22;2388;53.582;9.962;2023-04-24T05:34:48;11.80;99.90
4749;DHT22;2388;53.582;9.962;2023-04-24T05:37:13;11.90;99.90
4749;DHT22;2388;53.582;9.962;2023-04-24T05:39:39;11.90;99.90
4749;DHT22;2388;53.582;9.962;2023-04-24T05:42:06;11.90;99.90
4749;DHT22;2388;53.582;9.962;2023-04-24T05:44:31;11.90;99.90
4749;DHT22;2388;53.582;9.962;2023-04-24T05:46:57;11.90;99.90
4749;DHT22;2388;53.582;9.962;2023-04-24T05:49:22;11.90;99.90
4749;DHT22;2388;53.582;9.962;2023-04-24T05:51:48;11.90;99.90
4749;DHT22;2388;53.582;9.962;2023-04-24T05:54:14;11.90;99.90
4749;DHT22;2388;53.582;9.962;2023-04-24T05:56:40;11.90;99.90
4749;DHT22;2388;53.582;9.962;2023-04-24T05:59:06;12.00;99.90
4749;DHT22;2388;53.582;9.962;2023-04-24T06:01:31;12.00;99.90
4749;DHT22;2388;53.582;9.962;2023-04-24T06:03:57;12.00;99.90
4749;DHT22;2388;53.582;9.962;2023-04-24T06:06:23;12.10;99.90
4749;DHT22;2388;53.582;9.962;2023-04-24T06:08:49;12.10;99.90
4749;DHT22;2388;53.582;9.962;2023-04-24T06:11:14;12.10;99.90
4749;DHT22;2388;53.582;9.962;2023-04-24T06:13:40;12.10;99.90
4749;DHT22;2388;53.582;9.962;2023-04-24T06:16:06;12.10;99.90
4749;DHT22;2388;53.582;9.962;2023-04-24T06:18:31;12.10;99.90
4749;DHT22;2388;53.582;9.962;2023-04-24T06:20:57;12.20;99.90
4749;DHT22;2388;53.582;9.962;2023-04-24T06:23:22;12.20;99.90
4749;DHT22;2388;53.582;9.962;2023-04-24T06:25:48;12.20;99.90
4749;DHT22;2388;53.582;9.962;2023-04-24T06:28:13;12.20;99.90
4749;DHT22;2388;53.582;9.962;2023-04-24T06:30:39;12.30;99.90
4749;DHT22;2388;53.582;9.962;2023-04-24T06:33:04;12.30;99.90
4749;DHT22;2388;53.582;9.962;2023-04-24T06:35:30;12.30;99.90
4749;DHT22;2388;53.582;9.962;2023-04-24T06:37:55;12.30;99.90
4749;DHT22;2388;53.582;9.962;2023-04-24T06:40:21;12.30;99.90
4749;DHT22;2388;53.582;9.962;2023-04-24T06:42:47;12.30;99.90
4749;DHT22;2388;53.582;9.962;2023-04-24T06:45:12;12.30;99.90
4749;DHT22;2388;53.582;9.962;2023-04-24T06:47:38;12.30;99.90
4749;DHT22;2388;53.582;9.962;2023-04-24T06:50:04;12.40;99.90
4749;DHT22;2388;53.582;9.962;2023-04-24T06:52:30;12.40;99.90
4749;DHT22;2388;53.582;9.962;2023-04-24T06:55:04;12.40;99.90
4749;DHT22;2388;53.582;9.962;2023-04-24T06:57:31;12.50;99.90
4749;DHT22;2388;53.582;9.962;2023-04-24T06:59:57;12.50;99.90
4749;DHT22;2388;53.582;9.962;2023-04-24T07:02:22;12.50;99.90
4749;DHT22;2388;53.582;9.962;2023-04-24T07:04:48;12.60;99.90
4749;DHT22;2388;53.582;9.962;2023-04-24T07:07:14;12.60;99.90
4749;DHT22;2388;53.582;9.962;2023-04-24T07:09:40;12.60;99.90
4749;DHT22;2388;53.582;9.962;2023-04-24T07:12:09;12.60;99.90
4749;DHT22;2388;53.582;9.962;2023-04-24T07:14:38;12.60;99.90
4749;DHT22;2388;53.582;9.962;2023-04-24T07:17:05;12.70;99.90
4749;DHT22;2388;53.582;9.962;2023-04-24T07:19:32;12.80;99.90
4749;DHT22;2388;53.582;9.962;2023-04-24T07:21:58;12.90;99.90
4749;DHT22;2388;53.582;9.962;2023-04-24T07:24:25;12.90;99.90
4749;DHT22;2388;53.582;9.962;2023-04-24T07:26:51;13.00;99.90
4749;DHT22;2388;53.582;9.962;2023-04-24T07:29:17;13.00;99.90
4749;DHT22;2388;53.582;9.962;2023-04-24T07:31:42;13.00;99.90
4749;DHT22;2388;53.582;9.962;2023-04-24T07:34:08;12.80;99.90
4749;DHT22;2388;53.582;9.962;2023-04-24T07:36:33;12.80;99.90
4749;DHT22;2388;53.582;9.962;2023-04-24T07:38:59;12.80;99.90
4749;DHT22;2388;53.582;9.962;2023-04-24T07:41:25;12.70;99.90
4749;DHT22;2388;53.582;9.962;2023-04-24T07:43:50;12.70;99.90
4749;DHT22;2388;53.582;9.962;2023-04-24T07:46:16;12.70;99.90
4749;DHT22;2388;53.582;9.962;2023-04-24T07:48:42;12.70;99.90
4749;DHT22;2388;53.582;9.962;2023-04-24T07:51:07;12.80;99.90
4749;DHT22;2388;53.582;9.962;2023-04-24T07:53:35;12.90;99.90
4749;DHT22;2388;53.582;9.962;2023-04-24T07:56:00;13.10;99.90
4749;DHT22;2388;53.582;9.962;2023-04-24T07:58:26;13.20;99.90
4749;DHT22;2388;53.582;9.962;2023-04-24T08:00:51;13.30;99.90
4749;DHT22;2388;53.582;9.962;2023-04-24T08:03:17;13.30;99.90
4749;DHT22;2388;53.582;9.962;2023-04-24T08:05:45;13.30;99.90
4749;DHT22;2388;53.582;9.962;2023-04-24T08:08:10;13.20;99.90
4749;DHT22;2388;53.582;9.962;2023-04-24T08:10:36;13.20;99.90
4749;DHT22;2388;53.582;9.962;2023-04-24T08:13:02;13.20;99.90
4749;DHT22;2388;53.582;9.962;2023-04-24T08:15:28;13.20;99.90
4749;DHT22;2388;53.582;9.962;2023-04-24T08:17:53;13.10;99.90
4749;DHT22;2388;53.582;9.962;2023-04-24T08:20:19;13.10;99.90
4749;DHT22;2388;53.582;9.962;2023-04-24T08:22:44;13.10;99.90
4749;DHT22;2388;53.582;9.962;2023-04-24T08:25:12;13.10;99.90
4749;DHT22;2388;53.582;9.962;2023-04-24T08:27:38;13.10;99.90
4749;DHT22;2388;53.582;9.962;2023-04-24T08:30:04;13.10;99.90
4749;DHT22;2388;53.582;9.962;2023-04-24T08:32:30;13.10;99.90
4749;DHT22;2388;53.582;9.962;2023-04-24T08:34:56;13.20;99.90
4749;DHT22;2388;53.582;9.962;2023-04-24T08:37:23;13.20;99.90
4749;DHT22;2388;53.582;9.962;2023-04-24T08:39:52;13.20;99.90
4749;DHT22;2388;53.582;9.962;2023-04-24T08:42:19;13.10;99.90
4749;DHT22;2388;53.582;9.962;2023-04-24T08:44:45;13.10;99.90
4749;DHT22;2388;53.582;9.962;2023-04-24T08:47:12;13.00;99.90
4749;DHT22;2388;53.582;9.962;2023-04-24T08:49:38;13.00;99.90
4749;DHT22;2388;53.582;9.962;2023-04-24T08:52:05;13.00;99.90
4749;DHT22;2388;53.582;9.962;2023-04-24T08:54:33;13.00;99.90
4749;DHT22;2388;53.582;9.962;2023-04-24T08:57:00;13.00;99.90
4749;DHT22;2388;53.582;9.962;2023-04-24T08:59:32;13.00;99.90
4749;DHT22;2388;53.582;9.962;2023-04-24T09:02:00;12.90;99.90
4749;DHT22;2388;53.582;9.962;2023-04-24T09:04:25;12.90;99.90
4749;DHT22;2388;53.582;9.962;2023-04-24T09:06:55;13.00;99.90
4749;DHT22;2388;53.582;9.962;2023-04-24T09:09:21;13.10;99.90
4749;DHT22;2388;53.582;9.962;2023-04-24T09:11:49;13.10;99.90
4749;DHT22;2388;53.582;9.962;2023-04-24T09:14:16;13.20;99.90
4749;DHT22;2388;53.582;9.962;2023-04-24T09:16:42;13.20;99.90
4749;DHT22;2388;53.582;9.962;2023-04-24T09:19:08;13.30;99.90
4749;DHT22;2388;53.582;9.962;2023-04-24T09:21:34;13.30;99.90
4749;DHT22;2388;53.582;9.962;2023-04-24T09:24:02;13.30;99.90
4749;DHT22;2388;53.582;9.962;2023-04-24T09:26:34;13.30;99.90
4749;DHT22;2388;53.582;9.962;2023-04-24T09:29:00;13.20;99.90
4749;DHT22;2388;53.582;9.962;2023-04-24T09:31:28;13.10;99.90
4749;DHT22;2388;53.582;9.962;2023-04-24T09:33:54;13.10;99.90
4749;DHT22;2388;53.582;9.962;2023-04-24T09:36:30;13.20;99.90
4749;DHT22;2388;53.582;9.962;2023-04-24T09:38:59;13.20;99.90
4749;DHT22;2388;53.582;9.962;2023-04-24T09:41:26;13.20;99.90
4749;DHT22;2388;53.582;9.962;2023-04-24T09:43:53;13.20;99.90
4749;DHT22;2388;53.582;9.962;2023-04-24T09:46:20;13.10;99.90
4749;DHT22;2388;53.582;9.962;2023-04-24T09:48:47;13.10;99.90
4749;DHT22;2388;53.582;9.962;2023-04-24T09:51:12;13.00;99.90
4749;DHT22;2388;53.582;9.962;2023-04-24T09:53:38;12.90;99.90
4749;DHT22;2388;53.582;9.962;2023-04-24T09:56:10;12.90;99.90
4749;DHT22;2388;53.582;9.962;2023-04-24T09:58:38;12.90;99.90
4749;DHT22;2388;53.582;9.962;2023-04-24T10:01:04;12.90;99.90
4749;DHT22;2388;53.582;9.962;2023-04-24T10:03:30;12.90;99.90
4749;DHT22;2388;53.582;9.962;2023-04-24T10:06:00;12.80;99.90
4749;DHT22;2388;53.582;9.962;2023-04-24T10:08:26;12.90;99.90
4749;DHT22;2388;53.582;9.962;2023-04-24T10:10:58;12.90;99.90
4749;DHT22;2388;53.582;9.962;2023-04-24T10:13:24;12.90;99.90
4749;DHT22;2388;53.582;9.962;2023-04-24T10:15:50;13.00;99.90
4749;DHT22;2388;53.582;9.962;2023-04-24T10:18:16;12.90;99.90
4749;DHT22;2388;53.582;9.962;2023-04-24T10:20:42;12.90;99.90
4749;DHT22;2388;53.582;9.962;2023-04-24T10:23:08;12.90;99.90
4749;DHT22;2388;53.582;9.962;2023-04-24T10:25:35;12.90;99.90
4749;DHT22;2388;53.582;9.962;2023-04-24T10:28:01;13.00;99.90
4749;DHT22;2388;53.582;9.962;2023-04-24T10:30:32;13.00;99.90
4749;DHT22;2388;53.582;9.962;2023-04-24T10:33:02;12.90;99.90
4749;DHT22;2388;53.582;9.962;2023-04-24T10:35:31;12.90;99.90
4749;DHT22;2388;53.582;9.962;2023-04-24T10:40:30;12.80;99.90
4749;DHT22;2388;53.582;9.962;2023-04-24T10:42:56;12.80;99.90
4749;DHT22;2388;53.582;9.962;2023-04-24T10:45:23;12.90;99.90
4749;DHT22;2388;53.582;9.962;2023-04-24T10:47:53;12.90;99.90
4749;DHT22;2388;53.582;9.962;2023-04-24T10:50:19;12.80;99.90
4749;DHT22;2388;53.582;9.962;2023-04-24T10:52:48;12.80;99.90
4749;DHT22;2388;53.582;9.962;2023-04-24T10:55:16;12.90;99.90
4749;DHT22;2388;53.582;9.962;2023-04-24T10:58:04;12.90;99.90
4749;DHT22;2388;53.582;9.962;2023-04-24T11:00:29;13.00;99.90
4749;DHT22;2388;53.582;9.962;2023-04-24T11:02:55;13.10;99.90
4749;DHT22;2388;53.582;9.962;2023-04-24T11:05:22;13.10;99.90
4749;DHT22;2388;53.582;9.962;2023-04-24T11:08:10;13.10;99.90
4749;DHT22;2388;53.582;9.962;2023-04-24T11:10:40;13.10;99.90
4749;DHT22;2388;53.582;9.962;2023-04-24T11:13:06;13.10;99.90
4749;DHT22;2388;53.582;9.962;2023-04-24T11:15:32;13.10;99.90
4749;DHT22;2388;53.582;9.962;2023-04-24T11:20:34;13.00;99.90
4749;DHT22;2388;53.582;9.962;2023-04-24T11:23:03;13.00;99.90
4749;DHT22;2388;53.582;9.962;2023-04-24T11:25:31;13.10;99.90
4749;DHT22;2388;53.582;9.962;2023-04-24T11:28:04;13.20;99.90
4749;DHT22;2388;53.582;9.962;2023-04-24T11:30:31;13.20;99.90
4749;DHT22;2388;53.582;9.962;2023-04-24T11:33:05;13.10;99.90
4749;DHT22;2388;53.582;9.962;2023-04-24T11:35:35;13.10;99.90
4749;DHT22;2388;53.582;9.962;2023-04-24T11:38:02;13.20;99.90
4749;DHT22;2388;53.582;9.962;2023-04-24T11:40:28;13.20;99.90
4749;DHT22;2388;53.582;9.962;2023-04-24T11:42:54;13.30;99.90
4749;DHT22;2388;53.582;9.962;2023-04-24T11:45:27;13.30;99.90
4749;DHT22;2388;53.582;9.962;2023-04-24T11:47:53;13.30;99.90
4749;DHT22;2388;53.582;9.962;2023-04-24T11:50:22;13.30;99.90
4749;DHT22;2388;53.582;9.962;2023-04-24T11:52:48;13.30;99.90
4749;DHT22;2388;53.582;9.962;2023-04-24T11:57:42;13.20;99.90
4749;DHT22;2388;53.582;9.962;2023-04-24T12:00:16;13.20;99.90
4749;DHT22;2388;53.582;9.962;2023-04-24T12:02:42;13.30;99.90
4749;DHT22;2388;53.582;9.962;2023-04-24T12:05:08;13.30;99.90
4749;DHT22;2388;53.582;9.962;2023-04-24T12:07:41;13.40;99.90
4749;DHT22;2388;53.582;9.962;2023-04-24T12:10:09;13.40;99.90
4749;DHT22;2388;53.582;9.962;2023-04-24T12:12:35;13.50;99.90
4749;DHT22;2388;53.582;9.962;2023-04-24T12:15:06;13.50;99.90
4749;DHT22;2388;53.582;9.962;2023-04-24T12:17:33;13.50;99.90
4749;DHT22;2388;53.582;9.962;2023-04-24T12:20:08;13.50;99.90
4749;DHT22;2388;53.582;9.962;2023-04-24T12:22:53;13.50;99.90
4749;DHT22;2388;53.582;9.962;2023-04-24T12:25:24;13.50;99.90
4749;DHT22;2388;53.582;9.962;2023-04-24T12:27:54;13.40;99.90
4749;DHT22;2388;53.582;9.962;2023-04-24T12:30:21;13.30;99.90
4749;DHT22;2388;53.582;9.962;2023-04-24T12:32:48;13.30;99.90
4749;DHT22;2388;53.582;9.962;2023-04-24T12:35:19;13.20;99.90
4749;DHT22;2388;53.582;9.962;2023-04-24T12:37:46;13.10;99.90
4749;DHT22;2388;53.582;9.962;2023-04-24T12:40:12;13.10;99.90
4749;DHT22;2388;53.582;9.962;2023-04-24T12:42:46;13.00;99.90
4749;DHT22;2388;53.582;9.962;2023-04-24T12:45:13;12.90;99.90
4749;DHT22;2388;53.582;9.962;2023-04-24T12:47:40;12.90;99.90
4749;DHT22;2388;53.582;9.962;2023-04-24T12:50:08;12.90;99.90
4749;DHT22;2388;53.582;9.962;2023-04-24T12:52:34;13.00;99.90
4749;DHT22;2388;53.582;9.962;2023-04-24T12:55:00;13.00;99.90
4749;DHT22;2388;53.582;9.962;2023-04-24T12:57:28;12.90;99.90
4749;DHT22;2388;53.582;9.962;2023-04-24T12:59:55;12.80;99.90
4749;DHT22;2388;53.582;9.962;2023-04-24T13:02:24;12.70;99.90
4749;DHT22;2388;53.582;9.962;2023-04-24T13:04:50;12.70;99.90
4749;DHT22;2388;53.582;9.962;2023-04-24T13:07:16;12.70;99.90
4749;DHT22;2388;53.582;9.962;2023-04-24T13:09:43;12.70;99.90
4749;DHT22;2388;53.582;9.962;2023-04-24T13:12:09;12.70;99.90
4749;DHT22;2388;53.582;9.962;2023-04-24T13:14:35;12.70;99.90
4749;DHT22;2388;53.582;9.962;2023-04-24T13:17:01;12.70;99.90
4749;DHT22;2388;53.582;9.962;2023-04-24T13:19:26;12.70;99.90
4749;DHT22;2388;53.582;9.962;2023-04-24T13:21:53;12.60;99.90
4749;DHT22;2388;53.582;9.962;2023-04-24T13:24:20;12.60;99.90
4749;DHT22;2388;53.582;9.962;2023-04-24T13:26:46;12.60;99.90
4749;DHT22;2388;53.582;9.962;2023-04-24T13:29:11;12.60;99.90
4749;DHT22;2388;53.582;9.962;2023-04-24T13:31:37;12.60;99.90
4749;DHT22;2388;53.582;9.962;2023-04-24T13:34:03;12.50;99.90
4749;DHT22;2388;53.582;9.962;2023-04-24T13:36:29;12.50;99.90
4749;DHT22;2388;53.582;9.962;2023-04-24T13:38:55;12.50;99.90
4749;DHT22;2388;53.582;9.962;2023-04-24T13:41:21;12.50;99.90
4749;DHT22;2388;53.582;9.962;2023-04-24T13:43:46;12.40;99.90
4749;DHT22;2388;53.582;9.962;2023-04-24T13:46:11;12.40;99.90
4749;DHT22;2388;53.582;9.962;2023-04-24T13:48:37;12.50;99.90
4749;DHT22;2388;53.582;9.962;2023-04-24T13:51:03;12.40;99.90
4749;DHT22;2388;53.582;9.962;2023-04-24T13:53:28;12.50;99.90
4749;DHT22;2388;53.582;9.962;2023-04-24T13:55:54;12.50;99.90
4749;DHT22;2388;53.582;9.962;2023-04-24T13:58:19;12.50;99.90
4749;DHT22;2388;53.582;9.962;2023-04-24T14:00:45;12.50;99.90
4749;DHT22;2388;53.582;9.962;2023-04-24T14:03:11;12.50;99.90
4749;DHT22;2388;53.582;9.962;2023-04-24T14:05:37;12.50;99.90
4749;DHT22;2388;53.582;9.962;2023-04-24T14:08:02;12.50;99.90
4749;DHT22;2388;53.582;9.962;2023-04-24T14:10:28;12.50;99.90
4749;DHT22;2388;53.582;9.962;2023-04-24T14:12:53;12.50;99.90
4749;DHT22;2388;53.582;9.962;2023-04-24T14:15:19;12.50;99.90
4749;DHT22;2388;53.582;9.962;2023-04-24T14:17:45;12.50;99.90
4749;DHT22;2388;53.582;9.962;2023-04-24T14:20:11;12.50;99.90
4749;DHT22;2388;53.582;9.962;2023-04-24T14:22:37;12.50;99.90
4749;DHT22;2388;53.582;9.962;2023-04-24T14:25:03;12.50;99.90
4749;DHT22;2388;53.582;9.962;2023-04-24T14:27:29;12.50;99.90
4749;DHT22;2388;53.582;9.962;2023-04-24T14:29:55;12.40;99.90
4749;DHT22;2388;53.582;9.962;2023-04-24T14:32:21;12.40;99.90
4749;DHT22;2388;53.582;9.962;2023-04-24T14:34:46;12.30;99.90
4749;DHT22;2388;53.582;9.962;2023-04-24T14:37:12;12.20;99.90
4749;DHT22;2388;53.582;9.962;2023-04-24T14:39:37;12.10;99.90
4749;DHT22;2388;53.582;9.962;2023-04-24T14:42:03;11.90;99.90
4749;DHT22;2388;53.582;9.962;2023-04-24T14:44:28;11.70;99.90
4749;DHT22;2388;53.582;9.962;2023-04-24T14:46:54;11.50;99.90
4749;DHT22;2388;53.582;9.962;2023-04-24T14:49:20;11.30;99.90
4749;DHT22;2388;53.582;9.962;2023-04-24T14:51:45;11.20;99.90
4749;DHT22;2388;53.582;9.962;2023-04-24T14:54:11;11.20;99.90
4749;DHT22;2388;53.582;9.962;2023-04-24T14:56:37;11.20;99.90
4749;DHT22;2388;53.582;9.962;2023-04-24T14:59:04;11.20;99.90
4749;DHT22;2388;53.582;9.962;2023-04-24T15:01:30;11.20;99.90
4749;DHT22;2388;53.582;9.962;2023-04-24T15:03:55;11.30;99.90
4749;DHT22;2388;53.582;9.962;2023-04-24T15:06:21;11.20;99.90
4749;DHT22;2388;53.582;9.962;2023-04-24T15:08:47;11.10;99.90
4749;DHT22;2388;53.582;9.962;2023-04-24T15:11:13;11.00;99.90
4749;DHT22;2388;53.582;9.962;2023-04-24T15:13:38;10.90;99.90
4749;DHT22;2388;53.582;9.962;2023-04-24T15:16:05;10.90;99.90
4749;DHT22;2388;53.582;9.962;2023-04-24T15:18:30;10.80;99.90
4749;DHT22;2388;53.582;9.962;2023-04-24T15:20:56;10.80;99.90
4749;DHT22;2388;53.582;9.962;2023-04-24T15:23:22;10.70;99.90
4749;DHT22;2388;53.582;9.962;2023-04-24T15:25:47;10.60;99.90
4749;DHT22;2388;53.582;9.962;2023-04-24T15:28:13;10.50;99.90
4749;DHT22;2388;53.582;9.962;2023-04-24T15:30:39;10.60;99.90
4749;DHT22;2388;53.582;9.962;2023-04-24T15:33:04;10.60;99.90
4749;DHT22;2388;53.582;9.962;2023-04-24T15:35:30;10.60;99.90
4749;DHT22;2388;53.582;9.962;2023-04-24T15:37:56;10.70;99.90
4749;DHT22;2388;53.582;9.962;2023-04-24T15:40:21;10.70;99.90
4749;DHT22;2388;53.582;9.962;2023-04-24T15:42:47;10.70;99.90
4749;DHT22;2388;53.582;9.962;2023-04-24T15:45:13;10.80;99.90
4749;DHT22;2388;53.582;9.962;2023-04-24T15:47:39;10.80;99.90
4749;DHT22;2388;53.582;9.962;2023-04-24T15:50:05;10.70;99.90
4749;DHT22;2388;53.582;9.962;2023-04-24T15:52:33;10.80;99.90
4749;DHT22;2388;53.582;9.962;2023-04-24T15:54:59;10.80;99.90
4749;DHT22;2388;53.582;9.962;2023-04-24T15:57:24;10.70;99.90
4749;DHT22;2388;53.582;9.962;2023-04-24T15:59:50;10.70;99.90
4749;DHT22;2388;53.582;9.962;2023-04-24T16:02:15;10.70;99.90
4749;DHT22;2388;53.582;9.962;2023-04-24T16:04:44;10.60;99.90